Time;durP1;ratioP1;P1;durP2;ratioP2;P2;SDS_P1;SDS_P2;PMS_P1;PMS_P2;Temp;Humidity;BMP_temperature;BMP_pressure;BME280_temperature;BME280_humidity;BME280_pressure;Samples;Min_cycle;Max_cycle;Signal;HPM_P1;HPM_P2
2022/06/11 00:01:43;;;;;;;6.60;1.08;;;;;;;14.60;55.88;100396.00;4998833;28;20474;-43
2022/06/11 00:04:15;;;;;;;10.90;1.50;;;;;;;14.55;55.73;100397.78;5001994;28;20062;-43
2022/06/11 00:06:46;;;;;;;17.50;1.95;;;;;;;14.52;56.39;100397.81;4996067;28;20076;-42
2022/06/11 00:09:14;;;;;;;9.07;1.15;;;;;;;14.49;56.76;100403.09;4998000;28;20050;-40
2022/06/11 00:11:41;;;;;;;8.98;1.23;;;;;;;14.48;56.00;100403.97;4998487;28;20042;-43
2022/06/11 00:14:09;;;;;;;9.23;1.45;;;;;;;14.46;56.84;100405.75;4997356;28;20058;-43
2022/06/11 00:16:36;;;;;;;8.98;1.20;;;;;;;14.44;56.81;100399.66;5001276;28;20459;-45
2022/06/11 00:19:06;;;;;;;9.80;1.30;;;;;;;14.42;57.28;100406.66;4997090;28;20050;-43
2022/06/11 00:21:35;;;;;;;12.77;2.42;;;;;;;14.40;56.73;100410.13;4999623;28;20061;-43
2022/06/11 00:24:03;;;;;;;10.43;1.30;;;;;;;14.36;57.44;100408.44;4991803;28;20121;-39
2022/06/11 00:26:30;;;;;;;6.80;1.58;;;;;;;14.33;56.98;100413.72;4973011;28;20059;-43
2022/06/11 00:28:57;;;;;;;11.77;2.28;;;;;;;14.28;56.95;100399.88;4994023;28;20050;-46
2022/06/11 00:31:25;;;;;;;8.88;1.50;;;;;;;14.27;57.45;100405.97;4993877;28;20457;-43
2022/06/11 00:33:52;;;;;;;9.98;1.67;;;;;;;14.23;57.28;100401.69;4997970;28;20105;-39
2022/06/11 00:36:19;;;;;;;16.05;1.52;;;;;;;14.20;57.98;100402.59;5002537;28;20054;-43
2022/06/11 00:38:47;;;;;;;9.68;1.75;;;;;;;14.18;57.28;100398.28;4993467;28;20058;-44
2022/06/11 00:41:17;;;;;;;9.25;1.27;;;;;;;14.14;58.24;100397.44;4990073;28;20050;-41
2022/06/11 00:43:43;;;;;;;8.27;1.38;;;;;;;14.10;57.90;100409.66;4988057;28;20050;-43
2022/06/11 00:49:29;;;;;;;9.35;2.08;;;;;;;14.02;58.49;100414.09;5037288;28;20395;-42
2022/06/11 00:54:40;;;;;;;11.32;1.33;;;;;;;13.97;58.09;100410.66;5059357;28;20410;-41
2022/06/11 00:57:08;;;;;;;9.27;1.35;;;;;;;13.93;58.87;100408.97;5020405;28;20092;-43
2022/06/11 00:59:41;;;;;;;12.15;1.60;;;;;;;13.90;58.12;100409.88;5019342;28;20513;-42
2022/06/11 01:02:09;;;;;;;10.77;1.52;;;;;;;13.88;58.56;100412.47;5019419;28;20050;-43
2022/06/11 01:04:58;;;;;;;5.70;1.55;;;;;;;13.77;58.94;100406.53;5022140;28;20057;-42
2022/06/11 01:13:10;;;;;;;11.90;2.17;;;;;;;13.74;59.28;100409.16;5061095;28;20419;-39
2022/06/11 01:15:44;;;;;;;7.15;2.38;;;;;;;13.74;59.50;100409.16;5001579;28;20086;-40
2022/06/11 01:35:16;;;;;;;9.68;1.45;;;;;;;13.56;60.17;100395.44;5043144;28;20389;-45
2022/06/11 01:40:44;;;;;;;12.00;1.30;;;;;;;13.50;60.90;100405.91;5032456;28;20396;-38
2022/06/11 01:43:22;;;;;;;9.05;1.42;;;;;;;13.52;60.60;100404.16;5012792;28;20054;-40
2022/06/11 01:45:58;;;;;;;9.13;1.52;;;;;;;13.53;61.95;100392.88;4992088;28;20050;-42
2022/06/11 01:48:28;;;;;;;11.70;1.55;;;;;;;13.51;62.35;100397.22;4981886;28;20055;-43
2022/06/11 01:53:53;;;;;;;12.82;2.90;;;;;;;13.46;62.12;100399.84;5012675;28;20415;-43
2022/06/11 01:59:50;;;;;;;15.68;2.42;;;;;;;13.77;62.63;100398.72;5018241;28;20431;-45
2022/06/11 02:08:09;;;;;;;10.15;1.48;;;;;;;13.42;63.63;100389.47;5031123;28;20415;-42
2022/06/11 02:13:24;;;;;;;11.77;2.50;;;;;;;13.40;62.72;100379.09;5094523;27;20384;-43
2022/06/11 02:16:08;;;;;;;14.55;1.52;;;;;;;13.34;62.67;100382.59;5060044;28;20435;-47
2022/06/11 02:18:36;;;;;;;9.73;2.83;;;;;;;13.37;62.91;100390.38;5059975;28;20057;-42
2022/06/11 02:21:09;;;;;;;10.15;3.03;;;;;;;13.34;63.27;100393.00;5060025;28;20401;-41
2022/06/11 02:23:41;;;;;;;12.32;2.85;;;;;;;13.33;64.10;100388.69;5061170;28;20071;-40
2022/06/11 02:26:30;;;;;;;9.43;2.72;;;;;;;13.31;63.53;100392.19;5063997;28;20168;-40
2022/06/11 02:28:59;;;;;;;11.90;3.72;;;;;;;13.30;63.37;100396.50;5063993;28;20049;-40
2022/06/11 02:31:30;;;;;;;15.68;2.92;;;;;;;13.30;63.28;100403.44;5042389;28;20382;-41
2022/06/11 02:34:01;;;;;;;13.68;2.88;;;;;;;13.28;63.55;100405.22;5041710;28;20045;-38
2022/06/11 02:36:31;;;;;;;14.90;2.92;;;;;;;13.27;64.35;100400.88;5039726;28;20045;-44
2022/06/11 02:39:04;;;;;;;11.93;3.20;;;;;;;13.25;63.82;100406.09;5040770;28;20045;-40
2022/06/11 02:41:33;;;;;;;10.52;2.88;;;;;;;13.26;63.20;100405.22;5037140;28;20115;-42
2022/06/11 02:44:00;;;;;;;12.57;2.60;;;;;;;13.22;63.71;100395.72;5045973;28;20079;-42
2022/06/11 02:46:43;;;;;;;13.20;3.10;;;;;;;13.20;64.17;100403.53;5039545;28;20080;-39
2022/06/11 02:51:53;;;;;;;15.65;2.05;;;;;;;13.17;64.47;100405.31;5048800;28;20417;-42
2022/06/11 02:54:22;;;;;;;15.07;1.80;;;;;;;13.14;64.42;100413.13;4997323;28;20062;-40
2022/06/11 02:56:51;;;;;;;13.38;1.85;;;;;;;13.13;65.22;100416.59;4980894;28;20498;-41
2022/06/11 02:59:17;;;;;;;12.10;1.42;;;;;;;13.11;64.94;100421.81;4983618;28;20564;-42
2022/06/11 03:01:44;;;;;;;13.15;2.38;;;;;;;13.09;65.09;100427.03;4980275;28;20398;-42
2022/06/11 03:04:11;;;;;;;13.43;1.55;;;;;;;13.07;64.48;100428.75;4980272;28;20510;-46
2022/06/11 03:06:41;;;;;;;11.43;1.90;;;;;;;13.05;64.85;100425.31;4978573;28;20097;-43
2022/06/11 03:09:10;;;;;;;13.90;2.50;;;;;;;13.04;65.21;100428.78;4999459;28;20077;-43
2022/06/11 03:11:38;;;;;;;11.40;1.55;;;;;;;13.02;64.30;100419.25;4978052;28;20054;-41
2022/06/11 03:14:05;;;;;;;14.90;2.28;;;;;;;12.99;64.93;100422.75;4981593;28;20486;-44
2022/06/11 03:16:32;;;;;;;11.57;1.50;;;;;;;12.99;64.60;100430.56;4983098;28;20125;-40
2022/06/11 03:18:59;;;;;;;14.10;1.80;;;;;;;12.97;64.34;100432.31;4983782;28;20066;-41
2022/06/11 03:21:26;;;;;;;10.80;1.48;;;;;;;12.94;65.47;100427.13;4984462;28;20450;-40
2022/06/11 03:23:52;;;;;;;9.57;1.70;;;;;;;12.92;66.24;100429.75;4982547;28;20043;-42
2022/06/11 03:26:19;;;;;;;20.08;1.95;;;;;;;12.90;65.16;100426.25;4982774;28;20055;-49
2022/06/11 03:28:46;;;;;;;10.15;1.95;;;;;;;12.89;65.44;100434.06;4981704;28;20046;-39
2022/06/11 03:31:12;;;;;;;12.73;1.80;;;;;;;12.87;66.03;100431.47;4984611;28;20046;-39
2022/06/11 03:33:40;;;;;;;12.88;1.92;;;;;;;12.84;65.82;100424.56;4981366;28;20093;-40
2022/06/11 03:36:09;;;;;;;13.93;1.80;;;;;;;12.83;66.47;100428.06;4979673;28;20051;-43
2022/06/11 03:38:38;;;;;;;11.63;2.15;;;;;;;12.82;66.21;100439.31;4977081;28;20422;-41
2022/06/11 03:41:06;;;;;;;11.45;1.42;;;;;;;12.81;65.69;100431.53;4982870;28;20046;-40
2022/06/11 03:43:33;;;;;;;9.18;1.58;;;;;;;12.81;66.85;100434.13;4981815;28;20042;-44
2022/06/11 03:46:00;;;;;;;10.45;1.92;;;;;;;12.79;65.76;100444.53;4982004;28;20046;-42
2022/06/11 03:48:28;;;;;;;15.80;2.15;;;;;;;12.79;66.44;100444.53;4980588;28;20046;-42
2022/06/11 03:50:58;;;;;;;12.52;1.58;;;;;;;12.81;66.46;100447.13;4978388;28;20046;-40
2022/06/11 03:53:27;;;;;;;11.30;2.10;;;;;;;12.82;67.03;100448.84;4979233;28;20109;-41
2022/06/11 03:55:54;;;;;;;11.80;1.92;;;;;;;12.79;66.41;100454.94;4986452;28;20050;-39
2022/06/11 03:58:21;;;;;;;8.95;1.70;;;;;;;12.80;66.13;100448.00;4980640;28;20102;-44
2022/06/11 04:03:37;;;;;;;13.25;1.60;;;;;;;12.80;66.80;100448.84;4950125;28;20591;-39
2022/06/11 04:06:05;;;;;;;9.63;1.48;;;;;;;12.82;67.02;100456.66;4982988;28;20050;-39
2022/06/11 04:08:32;;;;;;;11.40;1.30;;;;;;;12.82;67.61;100459.25;4968901;28;20050;-40
2022/06/11 04:11:00;;;;;;;12.68;1.35;;;;;;;12.82;66.07;100467.91;4968290;28;20102;-40
2022/06/11 04:13:29;;;;;;;11.18;1.85;;;;;;;12.83;66.13;100461.84;4966298;28;20101;-39
2022/06/11 04:15:57;;;;;;;8.82;1.40;;;;;;;12.83;66.69;100456.66;4968936;28;20101;-40
2022/06/11 04:21:06;;;;;;;17.30;2.60;;;;;;;12.88;66.54;100455.75;5084314;27;20402;-38
2022/06/11 04:23:34;;;;;;;13.13;1.92;;;;;;;12.90;67.20;100461.81;5082330;28;20094;-42
2022/06/11 04:26:05;;;;;;;14.02;2.05;;;;;;;12.90;66.91;100456.63;5085335;28;20192;-41
2022/06/11 04:28:32;;;;;;;12.05;2.42;;;;;;;12.90;67.06;100456.63;5083037;28;20051;-40
2022/06/11 04:31:01;;;;;;;13.43;1.73;;;;;;;12.93;66.48;100461.78;5084812;28;20071;-39
2022/06/11 04:33:28;;;;;;;14.48;2.00;;;;;;;12.92;67.20;100454.84;5082126;28;20109;-39
2022/06/11 04:35:55;;;;;;;6.95;1.52;;;;;;;12.94;66.53;100468.72;5081918;28;21236;-38
2022/06/11 04:38:22;;;;;;;11.00;2.22;;;;;;;12.96;66.42;100472.16;5083347;28;20074;-43
2022/06/11 04:40:49;;;;;;;11.02;2.30;;;;;;;12.99;67.68;100477.34;5086886;28;20048;-40
2022/06/11 04:43:34;;;;;;;10.70;1.77;;;;;;;13.03;67.43;100471.25;5083965;28;20113;-40
2022/06/11 04:46:03;;;;;;;10.65;1.55;;;;;;;13.07;67.02;100469.53;5084940;28;20044;-44
2022/06/11 04:48:30;;;;;;;17.65;1.85;;;;;;;13.11;67.43;100482.47;5085740;28;20048;-37
2022/06/11 04:50:59;;;;;;;12.95;1.45;;;;;;;13.18;67.02;100483.31;5081721;28;20446;-41
2022/06/11 04:53:25;;;;;;;12.02;2.28;;;;;;;13.26;67.17;100485.84;5063664;28;20093;-40
2022/06/11 04:55:52;;;;;;;16.88;1.67;;;;;;;13.33;66.68;100481.47;5086602;28;20458;-40
2022/06/11 04:58:20;;;;;;;10.10;2.03;;;;;;;13.40;67.69;100482.31;5083208;28;20078;-39
2022/06/11 05:00:46;;;;;;;11.02;2.10;;;;;;;13.48;68.04;100493.50;5085877;28;20439;-39
2022/06/11 05:03:13;;;;;;;10.50;1.98;;;;;;;13.56;67.58;100494.34;5080609;28;20048;-41
2022/06/11 05:05:40;;;;;;;14.07;2.03;;;;;;;13.61;67.64;100497.75;5082460;28;20075;-40
2022/06/11 05:08:07;;;;;;;9.65;1.58;;;;;;;13.70;67.44;100494.22;5083835;28;20114;-41
2022/06/11 05:10:35;;;;;;;10.07;1.92;;;;;;;13.81;67.89;100496.72;5083755;28;20460;-39
2022/06/11 05:13:05;;;;;;;11.43;1.90;;;;;;;13.92;67.11;100485.34;5081680;28;20048;-43
2022/06/11 05:15:34;;;;;;;13.05;2.05;;;;;;;14.02;67.06;100497.41;5079162;28;20131;-41
2022/06/11 05:18:01;;;;;;;10.90;1.92;;;;;;;14.10;67.09;100503.41;5082979;28;20065;-40
2022/06/11 05:20:28;;;;;;;8.13;2.15;;;;;;;14.22;67.23;100499.81;5086805;28;20093;-44
2022/06/11 05:22:54;;;;;;;9.50;1.55;;;;;;;14.34;67.92;100503.16;5081855;28;20052;-40
2022/06/11 05:25:22;;;;;;;11.80;1.77;;;;;;;14.47;67.24;100503.88;5080888;28;20048;-42
2022/06/11 05:27:49;;;;;;;12.50;2.20;;;;;;;14.59;66.67;100514.16;5085062;28;20045;-38
2022/06/11 05:30:24;;;;;;;9.15;2.15;;;;;;;14.68;66.30;100512.31;5080512;28;20041;-43
2022/06/11 05:32:52;;;;;;;11.10;2.10;;;;;;;14.80;66.21;100512.22;5068324;28;20646;-41
2022/06/11 05:35:22;;;;;;;9.32;1.73;;;;;;;14.95;66.84;100515.47;5069299;28;20051;-41
2022/06/11 05:37:51;;;;;;;9.82;1.98;;;;;;;15.09;66.54;100508.34;5044735;28;20048;-40
2022/06/11 05:40:21;;;;;;;8.85;1.35;;;;;;;15.24;66.61;100512.50;5068149;28;20048;-41
2022/06/11 05:42:48;;;;;;;11.52;2.45;;;;;;;15.41;65.80;100513.97;5070907;28;20456;-40
2022/06/11 05:45:19;;;;;;;11.13;2.15;;;;;;;15.58;65.73;100518.94;5065205;28;20056;-44
2022/06/11 05:47:48;;;;;;;7.82;1.63;;;;;;;15.64;65.31;100516.22;5066278;28;20056;-44
2022/06/11 05:50:19;;;;;;;9.00;1.73;;;;;;;15.66;65.19;100524.00;5068929;28;20052;-41
2022/06/11 05:52:46;;;;;;;13.57;1.95;;;;;;;15.67;64.43;100516.16;5067471;28;20051;-43
2022/06/11 05:55:16;;;;;;;12.10;1.52;;;;;;;15.67;64.93;100520.50;5069410;28;20557;-40
2022/06/11 05:57:47;;;;;;;13.27;1.88;;;;;;;15.66;64.79;100518.78;5069268;28;20044;-40
2022/06/11 06:00:16;;;;;;;8.38;2.03;;;;;;;15.63;65.00;100517.09;5062811;28;20086;-41
2022/06/11 06:02:44;;;;;;;9.13;1.00;;;;;;;15.63;64.45;100518.84;5065322;28;20037;-43
2022/06/11 06:05:16;;;;;;;12.23;1.75;;;;;;;15.64;64.69;100531.88;5045176;28;20546;-41
2022/06/11 06:07:49;;;;;;;8.02;1.27;;;;;;;15.67;64.87;100521.38;5058476;28;20055;-39
2022/06/11 06:10:15;;;;;;;8.73;1.85;;;;;;;15.79;64.99;100530.78;5069652;28;20118;-45
2022/06/11 06:12:42;;;;;;;12.65;1.52;;;;;;;15.95;64.97;100535.78;5070539;28;20048;-43
2022/06/11 06:15:14;;;;;;;12.02;1.42;;;;;;;16.10;64.88;100529.41;5065236;28;20102;-40
2022/06/11 06:17:41;;;;;;;8.00;1.58;;;;;;;16.30;64.83;100536.88;5067143;28;20048;-42
2022/06/11 06:20:11;;;;;;;13.27;1.42;;;;;;;16.49;64.74;100530.44;5061136;28;20049;-41
2022/06/11 06:22:39;;;;;;;10.60;1.30;;;;;;;16.70;65.14;100534.38;5067129;28;20036;-43
2022/06/11 06:25:06;;;;;;;9.68;1.42;;;;;;;16.95;64.86;100545.19;5064384;28;20529;-41
2022/06/11 06:27:33;;;;;;;10.00;1.60;;;;;;;17.17;64.23;100539.53;5066233;28;20052;-41
2022/06/11 06:30:00;;;;;;;9.88;1.70;;;;;;;17.40;64.03;100532.91;5066903;28;20048;-46
2022/06/11 06:32:26;;;;;;;10.57;1.67;;;;;;;17.62;64.08;100539.38;5063582;28;20060;-42
2022/06/11 06:34:53;;;;;;;13.73;2.47;;;;;;;17.81;63.23;100537.16;5066995;28;20053;-43
2022/06/11 06:37:20;;;;;;;12.02;2.90;;;;;;;17.99;63.31;100539.31;5067330;28;20523;-41
2022/06/11 06:39:46;;;;;;;10.63;1.02;;;;;;;18.14;62.84;100536.34;5063755;28;20094;-41
2022/06/11 06:42:13;;;;;;;12.90;2.05;;;;;;;18.29;62.47;100535.94;5064586;28;20048;-43
2022/06/11 06:44:39;;;;;;;13.98;1.67;;;;;;;18.45;62.68;100538.13;5062812;28;20098;-43
2022/06/11 06:47:06;;;;;;;11.55;2.42;;;;;;;18.58;61.72;100536.03;5062721;28;20146;-45
2022/06/11 06:49:33;;;;;;;7.95;1.70;;;;;;;18.68;61.88;100547.13;5065309;28;20056;-42
2022/06/11 06:52:00;;;;;;;8.45;1.90;;;;;;;18.72;60.96;100549.63;5068731;28;20056;-45
2022/06/11 06:54:26;;;;;;;11.55;1.52;;;;;;;18.83;60.60;100554.56;5066392;28;20677;-44
2022/06/11 06:56:53;;;;;;;9.88;1.50;;;;;;;18.92;60.58;100555.19;5063423;28;21018;-42
2022/06/11 06:59:20;;;;;;;6.50;1.40;;;;;;;19.08;60.16;100553.00;5065403;28;20048;-42
2022/06/11 07:01:47;;;;;;;12.90;2.22;;;;;;;19.24;59.65;100543.75;5064525;28;20052;-39
2022/06/11 07:04:14;;;;;;;10.50;1.33;;;;;;;19.44;60.12;100541.38;5061456;28;20474;-41
2022/06/11 07:06:50;;;;;;;8.63;1.73;;;;;;;19.65;59.53;100534.56;5067799;28;20514;-43
2022/06/11 07:09:17;;;;;;;6.32;1.60;;;;;;;19.83;59.06;100533.13;5057654;28;20138;-43
2022/06/11 07:11:43;;;;;;;7.35;1.27;;;;;;;20.00;58.84;100540.44;5064082;28;20044;-46
2022/06/11 07:14:10;;;;;;;8.98;1.60;;;;;;;20.17;58.16;100536.38;5063429;28;20044;-41
2022/06/11 07:16:42;;;;;;;10.20;1.52;;;;;;;20.41;57.85;100544.31;5063902;28;20366;-42
2022/06/11 07:19:17;;;;;;;8.15;1.50;;;;;;;20.61;57.23;100550.59;5061559;28;20044;-45
2022/06/11 07:21:50;;;;;;;6.60;1.63;;;;;;;20.76;56.80;100554.44;5047730;28;20048;-48
2022/06/11 07:24:22;;;;;;;7.65;1.48;;;;;;;20.92;56.54;100549.50;5052339;28;20377;-44
2022/06/11 07:26:58;;;;;;;8.55;1.35;;;;;;;21.10;56.84;100552.34;5041797;28;20059;-41
2022/06/11 07:29:30;;;;;;;10.27;1.67;;;;;;;21.37;56.30;100544.22;5044125;28;20570;-43
2022/06/11 07:32:01;;;;;;;4.93;1.27;;;;;;;21.64;56.15;100551.94;5045230;28;20079;-43
2022/06/11 07:34:46;;;;;;;6.03;1.23;;;;;;;21.91;55.02;100555.25;5042363;28;20195;-45
2022/06/11 07:37:13;;;;;;;4.88;1.20;;;;;;;22.06;53.51;100553.72;5047322;28;20044;-43
2022/06/11 07:39:40;;;;;;;8.55;1.20;;;;;;;22.24;53.84;100553.00;5050701;28;20049;-45
2022/06/11 07:42:07;;;;;;;9.68;1.15;;;;;;;22.40;53.85;100551.41;5055724;28;20470;-45
2022/06/11 07:44:36;;;;;;;7.35;1.17;;;;;;;22.64;53.48;100547.75;5047524;28;20060;-43
2022/06/11 07:47:04;;;;;;;7.55;1.10;;;;;;;22.83;52.43;100548.63;5045282;28;20060;-43
2022/06/11 07:49:31;;;;;;;6.18;0.93;;;;;;;23.03;52.03;100557.38;5043770;28;20048;-41
2022/06/11 07:51:58;;;;;;;4.55;0.90;;;;;;;23.07;51.82;100556.31;5046921;28;20775;-42
2022/06/11 07:54:24;;;;;;;7.75;1.52;;;;;;;23.21;52.14;100558.28;5043800;28;20114;-41
2022/06/11 07:56:51;;;;;;;6.80;1.67;;;;;;;23.42;51.49;100560.00;5050170;28;20045;-42
2022/06/11 07:59:18;;;;;;;7.65;0.90;;;;;;;23.45;51.43;100566.03;5042614;28;20106;-44
2022/06/11 08:01:44;;;;;;;5.72;1.48;;;;;;;23.56;50.40;100570.78;5046596;28;20048;-43
2022/06/11 08:04:12;;;;;;;6.25;1.45;;;;;;;23.70;50.36;100559.50;5047517;28;20131;-43
2022/06/11 08:06:39;;;;;;;6.93;1.40;;;;;;;23.82;49.63;100563.34;5045504;28;20048;-44
2022/06/11 08:09:05;;;;;;;6.97;1.05;;;;;;;23.88;49.96;100555.06;5044434;28;20068;-44
2022/06/11 08:11:32;;;;;;;5.72;1.25;;;;;;;23.99;49.76;100548.38;5046764;28;20075;-42
2022/06/11 08:14:00;;;;;;;5.97;1.02;;;;;;;24.04;48.52;100549.00;5046046;28;20103;-46
2022/06/11 08:16:26;;;;;;;6.13;1.10;;;;;;;24.19;49.15;100550.03;5045161;28;20090;-45
2022/06/11 08:18:53;;;;;;;7.32;1.30;;;;;;;24.31;47.69;100548.53;5042050;28;20546;-40
2022/06/11 08:21:20;;;;;;;8.25;1.38;;;;;;;24.34;47.92;100553.66;5044122;28;20554;-42
2022/06/11 08:23:46;;;;;;;7.38;1.92;;;;;;;24.35;46.99;100554.53;5042620;28;20053;-41
2022/06/11 08:26:13;;;;;;;6.47;1.30;;;;;;;24.44;47.42;100547.88;5047151;28;20045;-46
2022/06/11 08:28:40;;;;;;;8.93;1.33;;;;;;;24.69;47.63;100549.22;5039085;28;20079;-48
2022/06/11 08:31:06;;;;;;;7.75;1.65;;;;;;;24.96;47.01;100546.03;5041357;28;20059;-44
2022/06/11 08:33:33;;;;;;;6.22;1.38;;;;;;;25.14;46.34;100546.78;5041310;28;20041;-49
2022/06/11 08:36:00;;;;;;;6.03;1.17;;;;;;;25.24;46.47;100547.97;5042125;28;20371;-46
2022/06/11 08:38:27;;;;;;;6.20;2.22;;;;;;;25.29;46.07;100547.69;5043624;28;20102;-42
2022/06/11 08:40:55;;;;;;;6.20;1.33;;;;;;;25.40;46.10;100542.63;5039370;28;20049;-53
2022/06/11 08:43:30;;;;;;;8.20;1.50;;;;;;;25.45;45.45;100541.50;5044186;28;20045;-44
2022/06/11 08:48:43;;;;;;;6.25;1.35;;;;;;;25.49;45.54;100548.34;5073881;27;20410;-47
2022/06/11 08:51:50;;;;;;;7.65;1.10;;;;;;;25.29;44.89;100545.03;5059479;28;20502;-46
2022/06/11 09:02:34;;;;;;;8.45;1.27;;;;;;;25.01;45.17;100533.34;5020785;28;20776;-52
2022/06/11 09:05:29;;;;;;;5.72;1.15;;;;;;;25.19;44.33;100542.06;4997728;28;20457;-50
2022/06/11 09:27:02;;;;;;;8.40;2.33;;;;;;;25.87;43.42;100537.31;5017664;27;20893;-43
2022/06/11 09:29:41;;;;;;;6.38;2.20;;;;;;;26.05;42.51;100537.16;5006174;28;20054;-44
2022/06/11 09:32:14;;;;;;;6.35;1.45;;;;;;;26.14;42.87;100541.06;4992341;28;20462;-46
2022/06/11 09:34:48;;;;;;;5.00;1.30;;;;;;;26.36;42.98;100545.94;4997424;28;20452;-52
2022/06/11 09:37:23;;;;;;;5.55;2.35;;;;;;;26.37;42.53;100542.31;5016026;28;20078;-47
2022/06/11 09:40:16;;;;;;;5.53;2.25;;;;;;;26.34;41.88;100558.44;5011100;28;20064;-45
2022/06/11 09:48:21;;;;;;;5.13;1.40;;;;;;;26.23;41.88;100550.25;5015721;27;20403;-46
2022/06/11 10:09:51;;;;;;;6.75;2.83;;;;;;;26.08;39.53;100566.19;5010296;27;20939;-45
2022/06/11 10:46:35;;;;;;;5.90;1.48;;;;;;;25.75;41.40;100561.91;5034292;28;20415;-46
2022/06/11 10:49:03;;;;;;;8.60;1.73;;;;;;;25.77;41.82;100562.69;5020542;28;20060;-47
2022/06/11 10:51:33;;;;;;;8.05;1.35;;;;;;;25.63;41.20;100567.00;5020632;28;20478;-47
2022/06/11 10:54:14;;;;;;;5.05;1.63;;;;;;;25.39;40.96;100556.84;5020509;28;20421;-50
2022/06/11 10:56:48;;;;;;;6.78;1.00;;;;;;;25.20;41.51;100569.44;5018930;28;20050;-45
2022/06/11 11:02:11;;;;;;;4.53;1.80;;;;;;;25.13;42.24;100574.22;5057119;27;20408;-45
2022/06/11 11:04:42;;;;;;;7.93;2.08;;;;;;;25.22;42.09;100556.94;5029039;28;20089;-47
2022/06/11 11:09:50;;;;;;;6.40;1.58;;;;;;;25.48;42.19;100575.81;5037375;28;21376;-47
2022/06/11 11:12:23;;;;;;;8.93;1.63;;;;;;;25.67;42.02;100573.81;4996542;28;20046;-47
2022/06/11 12:21:07;;;;;;;6.82;1.27;;;;;;;27.00;38.22;100522.53;5037035;27;20408;-46
2022/06/11 15:06:22;;;;;;;3.90;1.38;;;;;;;23.19;49.55;100564.59;5032698;27;20777;-42
2022/06/11 15:22:05;;;;;;;6.75;2.25;;;;;;;23.25;47.42;100548.44;5093473;27;20409;-44
2022/06/11 15:27:10;;;;;;;5.55;1.38;;;;;;;23.45;47.19;100546.66;5022083;28;20425;-43
2022/06/11 15:29:37;;;;;;;4.72;1.38;;;;;;;23.60;46.43;100545.03;5023983;28;20054;-44
2022/06/11 15:45:21;;;;;;;3.92;1.42;;;;;;;23.56;44.20;100546.97;5024627;27;20402;-42
2022/06/11 15:48:01;;;;;;;3.85;1.60;;;;;;;23.42;44.21;100545.03;5002210;28;20054;-44
2022/06/11 15:50:30;;;;;;;7.90;1.80;;;;;;;23.42;45.61;100552.09;5003030;28;20185;-47
2022/06/11 15:53:00;;;;;;;3.92;1.63;;;;;;;23.48;45.37;100544.69;5002203;28;20050;-44
2022/06/11 15:55:44;;;;;;;4.78;1.70;;;;;;;23.57;44.86;100545.22;5000464;28;20069;-43
2022/06/11 16:00:57;;;;;;;2.58;0.85;;;;;;;23.62;43.01;100538.75;5062660;27;20408;-45
2022/06/11 16:08:54;;;;;;;4.07;0.93;;;;;;;23.50;41.75;100544.63;5033613;28;20405;-44
2022/06/11 16:11:26;;;;;;;3.00;0.55;;;;;;;23.54;41.98;100554.13;5033733;28;20044;-41
2022/06/11 16:14:00;;;;;;;4.97;0.70;;;;;;;23.55;42.12;100553.22;5040338;28;20066;-41
2022/06/11 16:16:31;;;;;;;5.05;0.88;;;;;;;23.53;41.76;100547.13;5045027;28;20539;-42
2022/06/11 16:24:19;;;;;;;5.97;1.52;;;;;;;23.66;41.56;100536.81;5064449;28;20760;-42
2022/06/11 16:26:46;;;;;;;3.88;1.17;;;;;;;23.65;42.16;100543.03;5031724;27;20088;-47
2022/06/11 16:29:16;;;;;;;5.70;1.10;;;;;;;23.66;41.30;100535.94;5023450;28;20050;-44
2022/06/11 16:31:45;;;;;;;5.18;1.20;;;;;;;23.58;41.55;100539.81;5003979;28;20042;-42
2022/06/11 16:34:17;;;;;;;5.65;2.42;;;;;;;23.55;41.84;100540.00;5023303;28;20104;-41
2022/06/11 16:36:46;;;;;;;6.05;1.67;;;;;;;23.55;41.63;100550.56;5013878;28;20054;-46
2022/06/11 16:39:31;;;;;;;6.35;1.85;;;;;;;23.52;41.70;100545.41;5008065;28;20069;-42
2022/06/11 16:44:48;;;;;;;5.18;1.05;;;;;;;23.59;41.31;100552.13;5013150;28;20046;-43
2022/06/11 16:47:19;;;;;;;5.00;0.90;;;;;;;23.52;41.48;100553.34;5015114;28;20100;-45
2022/06/11 16:58:36;;;;;;;8.65;1.05;;;;;;;23.35;41.72;100544.47;5017601;28;20045;-43
2022/06/11 17:01:22;;;;;;;5.43;0.70;;;;;;;23.53;41.67;100551.53;5017454;28;20041;-48
2022/06/11 17:11:46;;;;;;;6.90;2.70;;;;;;;23.66;40.13;100563.25;5008556;28;20404;-45
2022/06/11 17:14:32;;;;;;;5.45;2.72;;;;;;;23.51;40.89;100554.28;4986941;28;20054;-47
2022/06/11 17:16:59;;;;;;;7.90;3.85;;;;;;;23.41;40.72;100553.03;4989750;28;20058;-43
2022/06/11 17:19:27;;;;;;;5.43;4.07;;;;;;;23.36;40.62;100572.59;4977657;28;20065;-43
2022/06/11 17:22:01;;;;;;;3.88;2.17;;;;;;;23.26;40.92;100566.00;4987044;28;20979;-45
2022/06/11 17:24:32;;;;;;;4.55;2.75;;;;;;;23.19;41.54;100577.78;4982426;28;20049;-41
2022/06/11 17:29:43;;;;;;;4.35;1.70;;;;;;;23.06;41.07;100570.47;5056392;27;20401;-45
2022/06/11 17:32:20;;;;;;;4.00;1.20;;;;;;;22.96;40.79;100566.53;5030025;28;20049;-42
2022/06/11 17:34:49;;;;;;;2.92;1.05;;;;;;;22.89;41.20;100573.03;5030195;28;20060;-44
2022/06/11 17:37:23;;;;;;;3.55;0.90;;;;;;;22.82;41.84;100578.59;5048255;28;20049;-42
2022/06/11 17:39:49;;;;;;;5.18;1.30;;;;;;;22.77;41.66;100570.03;5042835;28;20041;-46
2022/06/11 17:42:16;;;;;;;5.05;1.20;;;;;;;22.71;41.84;100578.22;5045047;28;20061;-45
2022/06/11 17:44:43;;;;;;;3.65;1.33;;;;;;;22.58;41.65;100578.78;5047382;28;20052;-46
2022/06/11 17:47:10;;;;;;;3.47;1.05;;;;;;;22.47;41.51;100578.38;5046982;28;20100;-45
2022/06/11 17:49:40;;;;;;;4.50;1.10;;;;;;;22.40;41.86;100580.44;5039870;28;20061;-43
2022/06/11 17:52:15;;;;;;;7.15;1.10;;;;;;;22.32;42.05;100574.63;5019006;28;20566;-41
2022/06/11 17:54:42;;;;;;;7.97;2.10;;;;;;;22.27;42.20;100572.19;5041563;28;20076;-47
2022/06/11 17:57:11;;;;;;;4.07;2.20;;;;;;;22.19;42.18;100585.72;5047171;28;20063;-46
2022/06/11 17:59:40;;;;;;;6.60;2.55;;;;;;;22.11;42.12;100576.41;5013918;28;20564;-45
2022/06/11 18:05:07;;;;;;;9.40;3.80;;;;;;;21.99;42.38;100589.22;5027813;28;20407;-44
2022/06/11 18:07:34;;;;;;;5.90;1.83;;;;;;;21.95;42.66;100579.69;4982510;28;21011;-43
2022/06/11 18:10:01;;;;;;;8.68;1.85;;;;;;;21.88;42.40;100581.72;5003498;28;20054;-43
2022/06/11 18:12:28;;;;;;;6.22;1.77;;;;;;;21.82;42.86;100582.84;5006218;28;20104;-42
2022/06/11 18:15:16;;;;;;;9.05;2.47;;;;;;;21.78;42.75;100581.25;5004252;28;20045;-40
2022/06/11 18:17:43;;;;;;;11.70;2.85;;;;;;;21.80;43.30;100587.34;5000330;28;20054;-42
2022/06/11 18:20:14;;;;;;;8.80;2.80;;;;;;;21.81;43.32;100586.41;5003815;28;20565;-41
2022/06/11 18:25:28;;;;;;;6.15;3.50;;;;;;;21.90;43.45;100598.38;4995701;28;20062;-41
2022/06/11 18:27:56;;;;;;;6.28;1.25;;;;;;;21.92;43.71;100596.50;5001703;28;20046;-45
2022/06/11 18:30:26;;;;;;;5.50;3.20;;;;;;;21.95;43.65;100587.59;4998085;28;20128;-43
2022/06/11 18:32:53;;;;;;;5.75;1.83;;;;;;;21.96;43.34;100594.63;4996399;28;20050;-45
2022/06/11 18:35:20;;;;;;;11.93;7.55;;;;;;;21.95;43.86;100588.47;5000432;28;20054;-45
2022/06/11 18:37:46;;;;;;;9.73;4.20;;;;;;;21.94;43.69;100589.41;4995342;28;20726;-47
2022/06/11 18:40:17;;;;;;;10.57;4.78;;;;;;;21.95;43.99;100592.88;4998528;28;20046;-47
2022/06/11 18:42:43;;;;;;;9.63;5.25;;;;;;;21.89;43.76;100594.00;4981627;28;20054;-46
2022/06/11 18:45:12;;;;;;;5.28;1.88;;;;;;;21.83;43.33;100595.13;5001094;28;20088;-43
2022/06/11 18:47:49;;;;;;;7.15;1.77;;;;;;;21.73;43.62;100583.22;5005195;28;20054;-42
2022/06/11 18:50:16;;;;;;;4.00;1.40;;;;;;;21.62;43.06;100590.69;5001505;28;20465;-41
2022/06/11 18:52:43;;;;;;;4.97;0.93;;;;;;;21.47;43.46;100590.38;5002074;28;20510;-42
2022/06/11 18:55:11;;;;;;;6.85;1.92;;;;;;;21.35;43.20;100598.78;5003621;28;21401;-42
2022/06/11 18:57:38;;;;;;;4.25;1.25;;;;;;;21.21;43.21;100594.91;4998147;28;20061;-45
2022/06/11 19:00:08;;;;;;;2.60;1.08;;;;;;;21.14;43.40;100601.34;5001864;28;20394;-43
2022/06/11 19:02:35;;;;;;;3.30;0.40;;;;;;;21.04;43.17;100604.31;5001571;28;20053;-45